createdAt,value
2023-01-20T00:01:43.095Z,0.80
2023-01-20T00:04:15.613Z,0.80
2023-01-20T00:06:47.670Z,0.80
2023-01-20T00:09:19.492Z,0.80
2023-01-20T00:11:51.218Z,0.80
2023-01-20T00:14:25.107Z,0.80
2023-01-20T00:16:57.416Z,0.70
2023-01-20T00:19:29.115Z,0.70
2023-01-20T00:22:00.854Z,0.70
2023-01-20T00:24:33.091Z,0.70
2023-01-20T00:27:04.842Z,0.70
2023-01-20T00:29:36.518Z,0.70
2023-01-20T00:32:08.298Z,0.60
2023-01-20T00:34:39.985Z,0.60
2023-01-20T00:37:11.760Z,0.70
2023-01-20T00:39:43.448Z,0.70
2023-01-20T00:42:15.207Z,0.70
2023-01-20T00:44:46.962Z,0.70
2023-01-20T00:47:20.888Z,0.70
2023-01-20T00:49:52.585Z,0.70
2023-01-20T00:52:24.332Z,0.60
2023-01-20T00:54:56.039Z,0.60
2023-01-20T00:57:27.773Z,0.50
2023-01-20T00:59:59.509Z,0.50
2023-01-20T01:02:31.354Z,0.50
2023-01-20T01:05:03.173Z,0.50
2023-01-20T01:07:34.967Z,0.50
2023-01-20T01:10:07.168Z,0.50
2023-01-20T01:12:38.995Z,0.40
2023-01-20T01:15:11.622Z,0.70
2023-01-20T01:17:44.898Z,0.30
2023-01-20T01:20:17.085Z,0.30
2023-01-20T01:22:48.774Z,0.30
2023-01-20T01:25:20.754Z,0.20
2023-01-20T01:27:52.432Z,0.20
2023-01-20T01:30:24.166Z,0.20
2023-01-20T01:32:55.883Z,0.20
2023-01-20T01:35:27.790Z,0.20
2023-01-20T01:37:59.534Z,0.20
2023-01-20T01:40:31.277Z,0.20
2023-01-20T01:43:02.987Z,0.40
2023-01-20T01:45:34.966Z,0.20
2023-01-20T01:48:09.683Z,0.20
2023-01-20T01:51:01.721Z,0.20
2023-01-20T01:53:40.367Z,0.20
2023-01-20T01:56:12.989Z,0.40
2023-01-20T01:58:47.657Z,0.20
2023-01-20T02:01:20.253Z,0.30
2023-01-20T02:04:08.245Z,0.30
2023-01-20T02:06:46.891Z,0.20
2023-01-20T02:09:19.024Z,0.20
2023-01-20T02:11:53.771Z,0.50
2023-01-20T02:14:31.314Z,0.20
2023-01-20T02:17:16.852Z,0.10
2023-01-20T02:20:00.349Z,0.00
2023-01-20T02:40:19.363Z,0.00
2023-01-20T02:43:18.228Z,0.00
2023-01-20T02:46:20.872Z,0.00
2023-01-20T02:48:52.569Z,-0.10
2023-01-20T02:51:30.902Z,-0.10
2023-01-20T02:54:07.295Z,-0.10
2023-01-20T02:56:39.604Z,0.00
2023-01-20T02:59:25.575Z,0.00
2023-01-20T03:02:08.891Z,-0.10
2023-01-20T03:04:53.270Z,-0.10
2023-01-20T03:07:28.960Z,-0.10
2023-01-20T03:10:06.075Z,-0.10
2023-01-20T03:12:44.591Z,-0.10
2023-01-20T03:15:20.143Z,-0.10
2023-01-20T03:17:52.315Z,-0.10
2023-01-20T03:20:24.486Z,0.00
2023-01-20T03:22:56.199Z,-0.10
2023-01-20T03:25:28.046Z,-0.10
2023-01-20T03:27:59.843Z,-0.10
2023-01-20T03:30:31.734Z,-0.10
2023-01-20T03:33:04.205Z,-0.10
2023-01-20T03:35:36.461Z,-0.10
2023-01-20T03:38:09.995Z,-0.10
2023-01-20T03:40:58.296Z,-0.10
2023-01-20T03:43:45.506Z,-0.10
2023-01-20T03:46:33.323Z,-0.10
2023-01-20T03:49:18.059Z,-0.10
2023-01-20T03:52:04.841Z,-0.10
2023-01-20T03:55:15.297Z,-0.10
2023-01-20T03:58:17.866Z,0.00
2023-01-20T04:00:51.511Z,-0.10
2023-01-20T04:03:32.614Z,0.00
2023-01-20T04:06:07.842Z,0.00
2023-01-20T04:08:57.036Z,0.00
2023-01-20T04:11:28.973Z,0.00
2023-01-20T04:14:01.068Z,0.10
2023-01-20T04:16:32.887Z,0.10
2023-01-20T04:19:04.600Z,0.00
2023-01-20T04:21:41.698Z,0.10
2023-01-20T04:24:27.652Z,0.10
2023-01-20T04:26:59.392Z,0.10
2023-01-20T04:29:31.154Z,0.10
2023-01-20T04:32:04.181Z,0.10
2023-01-20T04:34:35.958Z,0.10
2023-01-20T04:37:07.662Z,0.10
2023-01-20T04:39:39.374Z,0.10
2023-01-20T04:42:11.773Z,0.10
2023-01-20T04:44:43.639Z,0.10
2023-01-20T04:47:15.333Z,0.10
2023-01-20T04:49:47.033Z,0.10
2023-01-20T04:52:18.721Z,0.10
2023-01-20T04:54:50.771Z,0.10
2023-01-20T04:57:22.484Z,0.10
2023-01-20T04:59:54.214Z,0.20
2023-01-20T05:02:26.129Z,0.20
2023-01-20T05:04:57.944Z,0.20
2023-01-20T05:07:29.647Z,0.20
2023-01-20T05:10:01.335Z,0.20
2023-01-20T05:12:33.076Z,0.20
2023-01-20T05:15:05.349Z,0.20
2023-01-20T05:17:37.047Z,0.20
2023-01-20T05:20:09.603Z,0.20
2023-01-20T05:22:41.308Z,0.30
2023-01-20T05:25:13.138Z,0.20
2023-01-20T05:27:45.036Z,0.30
2023-01-20T05:30:16.860Z,0.30
2023-01-20T05:32:52.160Z,0.30
2023-01-20T05:35:23.933Z,0.30
2023-01-20T05:37:55.853Z,0.30
2023-01-20T05:40:27.605Z,0.30
2023-01-20T05:43:02.705Z,0.30
2023-01-20T05:45:34.457Z,0.30
2023-01-20T05:48:06.439Z,0.30
2023-01-20T05:50:38.207Z,0.40
2023-01-20T05:53:09.920Z,0.40
2023-01-20T05:55:41.653Z,0.40
2023-01-20T05:58:14.681Z,0.40
2023-01-20T06:00:46.373Z,0.40
2023-01-20T06:03:18.064Z,0.40
2023-01-20T06:05:50.034Z,0.50
2023-01-20T06:08:21.775Z,0.50
2023-01-20T06:10:53.973Z,0.40
2023-01-20T06:13:25.919Z,0.40
2023-01-20T06:15:58.018Z,0.40
2023-01-20T06:18:30.441Z,0.40
2023-01-20T06:21:02.231Z,0.40
2023-01-20T06:23:34.099Z,0.40
2023-01-20T06:26:08.624Z,0.50
2023-01-20T06:28:40.677Z,0.40
2023-01-20T06:31:15.377Z,0.40
2023-01-20T06:33:47.199Z,0.30
2023-01-20T06:36:18.977Z,0.40
2023-01-20T06:38:51.070Z,0.40
2023-01-20T06:41:22.865Z,0.40
2023-01-20T06:43:54.620Z,0.30
2023-01-20T06:46:26.507Z,0.20
2023-01-20T06:49:00.756Z,0.30
2023-01-20T06:51:48.811Z,0.20
2023-01-20T06:54:20.633Z,0.20
2023-01-20T06:56:52.485Z,0.20
2023-01-20T06:59:24.301Z,0.20
2023-01-20T07:01:56.314Z,0.20
2023-01-20T07:04:28.134Z,0.20
2023-01-20T18:36:46.170Z,0.20
2023-01-20T18:39:23.367Z,0.30
2023-01-20T18:41:55.219Z,0.30
2023-01-20T18:44:26.952Z,0.30
2023-01-20T18:46:58.817Z,0.30
2023-01-20T18:49:30.536Z,0.30
2023-01-20T18:52:02.266Z,0.30
2023-01-20T18:54:35.780Z,0.30
2023-01-20T18:57:09.108Z,0.30
2023-01-20T18:59:42.022Z,0.30
2023-01-20T19:02:13.882Z,0.30
2023-01-20T19:04:45.707Z,0.20
2023-01-20T19:07:17.433Z,0.20
2023-01-20T19:09:49.198Z,0.20
2023-01-20T19:12:20.907Z,0.20
2023-01-20T19:14:54.673Z,0.20
2023-01-20T19:17:26.710Z,0.20
2023-01-20T19:19:58.879Z,0.20
2023-01-20T19:22:30.883Z,0.20
2023-01-20T19:25:02.691Z,0.20
2023-01-20T19:27:34.421Z,0.10
2023-01-20T19:30:06.633Z,0.10
2023-01-20T19:32:42.165Z,0.10
2023-01-20T19:35:14.107Z,0.10
2023-01-20T19:37:45.823Z,0.10
2023-01-20T19:40:17.985Z,0.00
2023-01-20T19:42:52.431Z,0.00
2023-01-20T19:45:26.916Z,0.00
2023-01-20T19:48:00.585Z,0.00
2023-01-20T19:50:32.348Z,0.00
2023-01-20T19:53:04.134Z,0.00
2023-01-20T19:55:35.854Z,0.00
2023-01-20T19:58:07.629Z,0.00
2023-01-20T20:00:39.346Z,0.00
2023-01-20T20:03:11.168Z,-0.10
2023-01-20T20:05:43.990Z,-0.10
2023-01-20T20:08:15.879Z,-0.10
2023-01-20T20:10:47.586Z,-0.10
2023-01-20T20:13:21.065Z,-0.10
2023-01-20T20:16:02.376Z,-0.10
2023-01-20T20:18:34.207Z,-0.10
2023-01-20T20:21:08.236Z,-0.10
2023-01-20T20:23:40.107Z,-0.10
2023-01-20T20:26:12.869Z,-0.20
2023-01-20T20:28:44.669Z,-0.20
2023-01-20T20:31:16.771Z,-0.20
2023-01-20T20:33:48.728Z,-0.20
2023-01-20T20:36:20.641Z,-0.20
2023-01-20T20:38:53.956Z,-0.20
2023-01-20T20:41:28.821Z,-0.20
2023-01-20T20:44:02.014Z,-0.20
2023-01-20T20:46:33.979Z,-0.20
2023-01-20T20:49:05.894Z,-0.20
2023-01-20T20:51:38.076Z,-0.20
2023-01-20T20:54:11.882Z,-0.20
2023-01-20T20:56:44.574Z,-0.20
2023-01-20T20:59:16.450Z,-0.20
2023-01-20T21:01:48.329Z,-0.20
2023-01-20T21:04:20.127Z,-0.20
2023-01-20T21:06:51.903Z,-0.30
2023-01-20T21:09:23.860Z,-0.30
2023-01-20T21:11:55.735Z,-0.20
2023-01-20T21:14:27.570Z,-0.30
2023-01-20T21:16:59.374Z,-0.30
2023-01-20T21:19:31.264Z,-0.30
2023-01-20T21:22:03.469Z,-0.30
2023-01-20T21:24:35.233Z,-0.40
2023-01-20T21:27:07.130Z,-0.40
2023-01-20T21:29:39.012Z,-0.20
2023-01-20T21:32:10.849Z,-0.40
2023-01-20T21:34:42.942Z,-0.40
2023-01-20T21:37:15.087Z,-0.40
2023-01-20T21:39:46.930Z,-0.40
2023-01-20T21:42:18.774Z,-0.10
2023-01-20T21:44:50.498Z,-0.40
2023-01-20T21:47:22.490Z,-0.50
2023-01-20T21:50:12.843Z,-0.50
2023-01-20T21:52:45.374Z,-0.50
2023-01-20T21:55:24.178Z,-0.50
2023-01-20T21:57:56.457Z,-0.20
2023-01-20T22:00:29.624Z,-0.60
2023-01-20T22:03:01.558Z,-0.60
2023-01-20T22:05:33.307Z,-0.70
2023-01-20T22:08:05.432Z,-0.70
2023-01-20T22:10:37.248Z,-0.70
2023-01-20T22:13:09.424Z,-0.60
2023-01-20T22:15:41.152Z,-0.70
2023-01-20T22:18:12.989Z,-0.70
2023-01-20T22:20:44.782Z,-0.70
2023-01-20T22:23:16.558Z,-0.70
2023-01-20T22:25:53.100Z,-0.70
2023-01-20T22:28:25.357Z,-0.70
2023-01-20T22:31:05.695Z,-0.70
2023-01-20T22:33:37.744Z,-0.70
2023-01-20T22:36:10.065Z,-0.70
2023-01-20T22:38:43.012Z,-0.80
2023-01-20T22:41:14.954Z,-0.80
2023-01-20T22:43:48.111Z,-0.80
2023-01-20T22:46:21.279Z,-0.80
2023-01-20T22:48:55.218Z,-0.80
2023-01-20T22:51:28.740Z,-0.80
2023-01-20T22:54:02.060Z,-0.90
2023-01-20T22:56:33.958Z,-0.80
2023-01-20T22:59:06.250Z,-0.90
2023-01-20T23:01:38.221Z,-0.80
2023-01-20T23:04:10.599Z,-0.80
2023-01-20T23:06:42.420Z,-0.80
2023-01-20T23:09:14.569Z,-0.50
2023-01-20T23:11:47.565Z,-0.90
2023-01-20T23:14:39.409Z,-0.80
2023-01-20T23:17:11.345Z,-0.60
2023-01-20T23:19:43.255Z,-0.90
2023-01-20T23:22:15.024Z,-0.90
2023-01-20T23:24:47.137Z,-0.90
2023-01-20T23:27:18.985Z,-0.90
2023-01-20T23:29:52.285Z,-0.70
2023-01-20T23:32:24.140Z,-0.80
2023-01-20T23:34:55.943Z,-0.80
2023-01-20T23:37:27.945Z,1.30
2023-01-20T23:39:59.829Z,-0.80
2023-01-20T23:42:31.846Z,1.10
2023-01-20T23:45:03.905Z,-0.80
2023-01-20T23:47:35.803Z,-0.90
2023-01-20T23:50:08.176Z,-0.90
2023-01-20T23:52:40.045Z,-0.90
2023-01-20T23:55:11.852Z,-1.00
2023-01-20T23:57:43.637Z,-1.00
